Alvarado, Minnesota
Current Conditions -  °F | °C
As of 4:53 PM on Wednesday 26 Nov 2014 (Local Time) from KGFK Reporting Station
Clear Clear  
Wind Chill: -16°   Ceiling: Unl
Heat Index: -4°   Visibility: 10mi
Dew Point: -9°   Wind: 6mph
Humidity: 79%   Direction: 350°N
Pressure: 30.51"   Gusts: NA
Location:  48.19°N, 97°W
Report Text: KGFK 262253Z 35005KT 10SM CLR M20/M23 A3051 RMK AO2 SLP359 T12001228
Loading
Personal Weather Stations






























Interactive Weather Map New forecast layout! Learn more

10-Day Weather Forecast

Advertisements
Track Severe Weather on mobile